sensor_id;sensor_type;location;lat;lon;timestamp;pressure;altitude;pressure_sealevel;temperature;humidity
13952;BME280;39535;52.192;9.886;2022-08-19T00:00:46;100046.53;;;18.98;100.00
13952;BME280;39535;52.192;9.886;2022-08-19T00:03:12;100038.28;;;18.89;100.00
13952;BME280;39535;52.192;9.886;2022-08-19T00:05:39;100022.72;;;18.84;100.00
13952;BME280;39535;52.192;9.886;2022-08-19T00:08:07;100020.25;;;18.81;100.00
13952;BME280;39535;52.192;9.886;2022-08-19T00:10:35;100023.97;;;18.77;100.00
13952;BME280;39535;52.192;9.886;2022-08-19T00:13:02;100021.03;;;18.67;100.00
13952;BME280;39535;52.192;9.886;2022-08-19T00:15:29;100025.09;;;18.58;100.00
13952;BME280;39535;52.192;9.886;2022-08-19T00:17:56;100037.75;;;18.53;100.00
13952;BME280;39535;52.192;9.886;2022-08-19T00:20:22;100040.38;;;18.53;100.00
13952;BME280;39535;52.192;9.886;2022-08-19T00:22:49;100044.03;;;18.51;100.00
13952;BME280;39535;52.192;9.886;2022-08-19T00:25:16;100037.13;;;18.48;100.00
13952;BME280;39535;52.192;9.886;2022-08-19T00:27:44;100039.47;;;18.38;100.00
13952;BME280;39535;52.192;9.886;2022-08-19T00:30:12;100046.28;;;18.42;100.00
13952;BME280;39535;52.192;9.886;2022-08-19T00:32:39;100057.97;;;18.38;100.00
13952;BME280;39535;52.192;9.886;2022-08-19T00:35:06;100058.03;;;18.37;100.00
13952;BME280;39535;52.192;9.886;2022-08-19T00:37:33;100052.06;;;18.33;100.00
13952;BME280;39535;52.192;9.886;2022-08-19T00:40:00;100059.25;;;18.31;100.00
13952;BME280;39535;52.192;9.886;2022-08-19T00:42:27;100065.75;;;18.25;100.00
13952;BME280;39535;52.192;9.886;2022-08-19T00:44:55;100055.50;;;18.19;100.00
13952;BME280;39535;52.192;9.886;2022-08-19T00:47:22;100059.25;;;18.15;100.00
13952;BME280;39535;52.192;9.886;2022-08-19T00:49:50;100053.97;;;18.15;100.00
13952;BME280;39535;52.192;9.886;2022-08-19T00:52:22;100056.91;;;18.11;100.00
13952;BME280;39535;52.192;9.886;2022-08-19T00:54:51;100069.94;;;18.14;100.00
13952;BME280;39535;52.192;9.886;2022-08-19T00:57:22;100072.47;;;18.15;100.00
13952;BME280;39535;52.192;9.886;2022-08-19T00:59:52;100076.22;;;18.11;100.00
13952;BME280;39535;52.192;9.886;2022-08-19T01:02:21;100069.81;;;18.15;100.00
13952;BME280;39535;52.192;9.886;2022-08-19T01:04:48;100069.81;;;18.15;100.00
13952;BME280;39535;52.192;9.886;2022-08-19T01:07:14;100080.03;;;18.21;100.00
13952;BME280;39535;52.192;9.886;2022-08-19T01:09:41;100094.03;;;18.23;100.00
13952;BME280;39535;52.192;9.886;2022-08-19T01:12:08;100099.50;;;18.20;100.00
13952;BME280;39535;52.192;9.886;2022-08-19T01:14:36;100095.25;;;18.18;100.00
13952;BME280;39535;52.192;9.886;2022-08-19T01:17:04;100085.03;;;18.12;100.00
13952;BME280;39535;52.192;9.886;2022-08-19T01:19:35;100074.59;;;18.24;100.00
13952;BME280;39535;52.192;9.886;2022-08-19T01:22:07;100088.41;;;18.30;100.00
13952;BME280;39535;52.192;9.886;2022-08-19T01:24:36;100087.13;;;18.37;100.00
13952;BME280;39535;52.192;9.886;2022-08-19T01:27:04;100077.59;;;18.18;100.00
13952;BME280;39535;52.192;9.886;2022-08-19T01:29:30;100076.56;;;18.21;100.00
13952;BME280;39535;52.192;9.886;2022-08-19T01:31:57;100067.28;;;18.14;100.00
13952;BME280;39535;52.192;9.886;2022-08-19T01:34:24;100064.41;;;18.02;100.00
13952;BME280;39535;52.192;9.886;2022-08-19T01:36:50;100067.53;;;18.09;100.00
13952;BME280;39535;52.192;9.886;2022-08-19T01:39:19;100072.47;;;18.15;100.00
13952;BME280;39535;52.192;9.886;2022-08-19T01:41:48;100077.41;;;18.05;100.00
13952;BME280;39535;52.192;9.886;2022-08-19T01:44:15;100070.78;;;18.14;100.00
13952;BME280;39535;52.192;9.886;2022-08-19T01:46:42;100073.69;;;18.10;100.00
13952;BME280;39535;52.192;9.886;2022-08-19T01:49:10;100060.81;;;18.03;100.00
13952;BME280;39535;52.192;9.886;2022-08-19T01:51:37;100059.97;;;18.03;100.00
13952;BME280;39535;52.192;9.886;2022-08-19T01:54:04;100059.94;;;18.19;100.00
13952;BME280;39535;52.192;9.886;2022-08-19T01:56:30;100069.19;;;18.12;100.00
13952;BME280;39535;52.192;9.886;2022-08-19T01:59:01;100079.47;;;18.16;100.00
13952;BME280;39535;52.192;9.886;2022-08-19T02:01:28;100069.00;;;18.15;100.00
13952;BME280;39535;52.192;9.886;2022-08-19T02:03:57;100075.03;;;18.17;100.00
13952;BME280;39535;52.192;9.886;2022-08-19T02:06:25;100069.75;;;18.17;100.00
13952;BME280;39535;52.192;9.886;2022-08-19T02:08:52;100071.72;;;18.13;100.00
13952;BME280;39535;52.192;9.886;2022-08-19T02:11:20;100079.81;;;18.26;100.00
13952;BME280;39535;52.192;9.886;2022-08-19T02:13:47;100079.09;;;18.38;100.00
13952;BME280;39535;52.192;9.886;2022-08-19T02:16:16;100091.47;;;18.38;99.77
13952;BME280;39535;52.192;9.886;2022-08-19T02:18:42;100095.66;;;18.42;98.87
13952;BME280;39535;52.192;9.886;2022-08-19T02:21:09;100080.81;;;18.39;99.74
13952;BME280;39535;52.192;9.886;2022-08-19T02:23:36;100078.53;;;18.17;100.00
13952;BME280;39535;52.192;9.886;2022-08-19T02:26:02;100048.13;;;18.10;100.00
13952;BME280;39535;52.192;9.886;2022-08-19T02:28:29;100054.09;;;18.14;100.00
13952;BME280;39535;52.192;9.886;2022-08-19T02:30:55;100051.28;;;18.01;100.00
13952;BME280;39535;52.192;9.886;2022-08-19T02:33:23;100059.03;;;18.04;100.00
13952;BME280;39535;52.192;9.886;2022-08-19T02:35:49;100056.81;;;18.12;100.00
13952;BME280;39535;52.192;9.886;2022-08-19T02:38:16;100053.53;;;18.23;100.00
13952;BME280;39535;52.192;9.886;2022-08-19T02:40:53;100072.22;;;18.36;99.39
13952;BME280;39535;52.192;9.886;2022-08-19T02:43:21;100093.41;;;18.50;98.66
13952;BME280;39535;52.192;9.886;2022-08-19T02:45:48;100118.28;;;18.62;97.30
13952;BME280;39535;52.192;9.886;2022-08-19T02:48:16;100137.13;;;18.72;96.81
13952;BME280;39535;52.192;9.886;2022-08-19T02:50:45;100139.59;;;18.59;97.04
13952;BME280;39535;52.192;9.886;2022-08-19T02:53:12;100130.50;;;18.49;97.51
13952;BME280;39535;52.192;9.886;2022-08-19T02:55:43;100126.16;;;18.48;98.21
13952;BME280;39535;52.192;9.886;2022-08-19T02:58:11;100107.84;;;18.29;98.99
13952;BME280;39535;52.192;9.886;2022-08-19T03:00:42;100097.69;;;18.37;99.16
13952;BME280;39535;52.192;9.886;2022-08-19T03:03:09;100100.38;;;18.51;98.65
13952;BME280;39535;52.192;9.886;2022-08-19T03:05:35;100112.41;;;18.57;97.93
13952;BME280;39535;52.192;9.886;2022-08-19T03:08:03;100119.28;;;18.75;97.11
13952;BME280;39535;52.192;9.886;2022-08-19T03:10:30;100137.88;;;18.90;96.38
13952;BME280;39535;52.192;9.886;2022-08-19T03:12:57;100158.41;;;19.00;95.60
13952;BME280;39535;52.192;9.886;2022-08-19T03:15:23;100179.22;;;18.91;94.85
13952;BME280;39535;52.192;9.886;2022-08-19T03:17:50;100176.44;;;18.78;95.25
13952;BME280;39535;52.192;9.886;2022-08-19T03:20:16;100170.41;;;18.60;96.21
13952;BME280;39535;52.192;9.886;2022-08-19T03:22:43;100146.16;;;18.68;97.03
13952;BME280;39535;52.192;9.886;2022-08-19T03:25:11;100134.84;;;18.65;96.80
13952;BME280;39535;52.192;9.886;2022-08-19T03:27:38;100120.88;;;18.48;97.45
13952;BME280;39535;52.192;9.886;2022-08-19T03:30:05;100080.72;;;18.25;99.41
13952;BME280;39535;52.192;9.886;2022-08-19T03:32:32;100052.22;;;18.16;100.00
13952;BME280;39535;52.192;9.886;2022-08-19T03:34:58;100041.03;;;18.11;100.00
13952;BME280;39535;52.192;9.886;2022-08-19T03:37:24;100022.06;;;18.04;100.00
13952;BME280;39535;52.192;9.886;2022-08-19T03:39:51;100022.72;;;17.92;100.00
13952;BME280;39535;52.192;9.886;2022-08-19T03:42:19;100022.06;;;18.04;100.00
13952;BME280;39535;52.192;9.886;2022-08-19T03:44:46;100028.69;;;17.95;100.00
13952;BME280;39535;52.192;9.886;2022-08-19T03:47:12;100017.75;;;17.70;100.00
13952;BME280;39535;52.192;9.886;2022-08-19T03:49:41;100004.31;;;17.58;100.00
13952;BME280;39535;52.192;9.886;2022-08-19T03:52:08;100005.75;;;17.48;100.00
13952;BME280;39535;52.192;9.886;2022-08-19T03:54:34;100002.66;;;17.40;100.00
13952;BME280;39535;52.192;9.886;2022-08-19T03:57:03;100002.84;;;17.37;100.00
13952;BME280;39535;52.192;9.886;2022-08-19T03:59:33;100019.94;;;17.30;100.00
13952;BME280;39535;52.192;9.886;2022-08-19T04:02:02;100026.94;;;17.31;100.00
13952;BME280;39535;52.192;9.886;2022-08-19T04:04:32;100033.13;;;17.30;100.00
13952;BME280;39535;52.192;9.886;2022-08-19T04:06:58;100046.50;;;17.26;100.00
13952;BME280;39535;52.192;9.886;2022-08-19T04:09:25;100058.03;;;17.24;100.00
13952;BME280;39535;52.192;9.886;2022-08-19T04:11:54;100066.84;;;17.24;100.00
13952;BME280;39535;52.192;9.886;2022-08-19T04:14:23;100073.97;;;17.22;100.00
13952;BME280;39535;52.192;9.886;2022-08-19T04:16:52;100066.97;;;17.21;100.00
13952;BME280;39535;52.192;9.886;2022-08-19T04:19:19;100063.00;;;17.30;100.00
13952;BME280;39535;52.192;9.886;2022-08-19T04:21:49;100060.53;;;17.27;100.00
13952;BME280;39535;52.192;9.886;2022-08-19T04:24:16;100063.16;;;17.27;100.00
13952;BME280;39535;52.192;9.886;2022-08-19T04:26:44;100068.38;;;17.29;100.00
13952;BME280;39535;52.192;9.886;2022-08-19T04:29:13;100071.84;;;17.29;100.00
13952;BME280;39535;52.192;9.886;2022-08-19T04:31:42;100085.97;;;17.28;100.00
13952;BME280;39535;52.192;9.886;2022-08-19T04:34:11;100092.34;;;17.24;100.00
13952;BME280;39535;52.192;9.886;2022-08-19T04:36:40;100096.84;;;17.22;100.00
13952;BME280;39535;52.192;9.886;2022-08-19T04:39:12;100099.25;;;17.26;100.00
13952;BME280;39535;52.192;9.886;2022-08-19T04:41:39;100098.25;;;17.29;100.00
13952;BME280;39535;52.192;9.886;2022-08-19T04:44:23;100098.94;;;17.33;100.00
13952;BME280;39535;52.192;9.886;2022-08-19T04:46:51;100096.03;;;17.37;100.00
13952;BME280;39535;52.192;9.886;2022-08-19T04:49:21;100103.16;;;17.53;100.00
13952;BME280;39535;52.192;9.886;2022-08-19T04:51:48;100112.44;;;17.60;100.00
13952;BME280;39535;52.192;9.886;2022-08-19T04:54:16;100117.63;;;17.61;100.00
13952;BME280;39535;52.192;9.886;2022-08-19T04:56:42;100112.16;;;17.49;100.00
13952;BME280;39535;52.192;9.886;2022-08-19T04:59:09;100108.84;;;17.45;100.00
13952;BME280;39535;52.192;9.886;2022-08-19T05:01:36;100105.53;;;17.57;100.00
13952;BME280;39535;52.192;9.886;2022-08-19T05:04:04;100105.19;;;17.47;100.00
13952;BME280;39535;52.192;9.886;2022-08-19T05:06:33;100102.75;;;17.60;100.00
13952;BME280;39535;52.192;9.886;2022-08-19T05:09:02;100098.53;;;17.40;100.00
13952;BME280;39535;52.192;9.886;2022-08-19T05:11:30;100089.41;;;17.46;100.00
13952;BME280;39535;52.192;9.886;2022-08-19T05:13:57;100086.03;;;17.60;100.00
13952;BME280;39535;52.192;9.886;2022-08-19T05:16:25;100097.91;;;17.69;100.00
13952;BME280;39535;52.192;9.886;2022-08-19T05:18:52;100105.81;;;17.69;100.00
13952;BME280;39535;52.192;9.886;2022-08-19T05:21:39;100106.84;;;17.66;100.00
13952;BME280;39535;52.192;9.886;2022-08-19T05:24:24;100105.94;;;17.83;100.00
13952;BME280;39535;52.192;9.886;2022-08-19T05:26:52;100109.97;;;17.90;100.00
13952;BME280;39535;52.192;9.886;2022-08-19T05:29:23;100112.56;;;17.74;100.00
13952;BME280;39535;52.192;9.886;2022-08-19T05:31:51;100110.03;;;17.55;100.00
13952;BME280;39535;52.192;9.886;2022-08-19T05:34:19;100098.09;;;17.48;100.00
13952;BME280;39535;52.192;9.886;2022-08-19T05:36:49;100105.75;;;17.37;100.00
13952;BME280;39535;52.192;9.886;2022-08-19T05:39:18;100104.34;;;17.30;100.00
13952;BME280;39535;52.192;9.886;2022-08-19T05:41:47;100108.31;;;17.38;100.00
13952;BME280;39535;52.192;9.886;2022-08-19T05:44:14;100100.44;;;17.54;100.00
13952;BME280;39535;52.192;9.886;2022-08-19T05:46:44;100104.03;;;17.69;100.00
13952;BME280;39535;52.192;9.886;2022-08-19T05:49:13;100127.97;;;17.66;100.00
13952;BME280;39535;52.192;9.886;2022-08-19T05:51:40;100126.28;;;17.47;100.00
13952;BME280;39535;52.192;9.886;2022-08-19T05:54:08;100119.03;;;17.35;100.00
13952;BME280;39535;52.192;9.886;2022-08-19T05:56:36;100105.53;;;17.24;100.00
13952;BME280;39535;52.192;9.886;2022-08-19T05:59:04;100098.56;;;17.23;100.00
13952;BME280;39535;52.192;9.886;2022-08-19T06:01:36;100090.84;;;17.36;100.00
13952;BME280;39535;52.192;9.886;2022-08-19T06:04:03;100100.25;;;17.57;100.00
13952;BME280;39535;52.192;9.886;2022-08-19T06:06:30;100119.47;;;17.77;100.00
13952;BME280;39535;52.192;9.886;2022-08-19T06:08:59;100141.81;;;17.87;100.00
13952;BME280;39535;52.192;9.886;2022-08-19T06:11:34;100147.88;;;17.89;100.00
13952;BME280;39535;52.192;9.886;2022-08-19T06:14:03;100152.38;;;17.87;100.00
13952;BME280;39535;52.192;9.886;2022-08-19T06:16:30;100166.72;;;17.81;100.00
13952;BME280;39535;52.192;9.886;2022-08-19T06:19:03;100160.56;;;17.65;100.00
13952;BME280;39535;52.192;9.886;2022-08-19T06:21:32;100162.94;;;17.70;100.00
13952;BME280;39535;52.192;9.886;2022-08-19T06:23:59;100176.06;;;17.89;100.00
13952;BME280;39535;52.192;9.886;2022-08-19T06:26:26;100172.69;;;17.52;100.00
13952;BME280;39535;52.192;9.886;2022-08-19T06:28:54;100160.44;;;17.51;100.00
13952;BME280;39535;52.192;9.886;2022-08-19T06:31:22;100153.00;;;17.75;100.00
13952;BME280;39535;52.192;9.886;2022-08-19T06:33:49;100169.69;;;17.93;100.00
13952;BME280;39535;52.192;9.886;2022-08-19T06:36:18;100187.91;;;17.97;100.00
13952;BME280;39535;52.192;9.886;2022-08-19T06:38:45;100202.59;;;18.03;99.70
13952;BME280;39535;52.192;9.886;2022-08-19T06:41:11;100207.09;;;18.01;99.28
13952;BME280;39535;52.192;9.886;2022-08-19T06:43:38;100221.91;;;17.70;98.32
13952;BME280;39535;52.192;9.886;2022-08-19T06:46:11;100213.97;;;17.70;99.15
13952;BME280;39535;52.192;9.886;2022-08-19T06:48:38;100203.00;;;17.78;99.39
13952;BME280;39535;52.192;9.886;2022-08-19T06:51:05;100218.41;;;17.87;98.73
13952;BME280;39535;52.192;9.886;2022-08-19T06:53:31;100207.06;;;17.67;99.56
13952;BME280;39535;52.192;9.886;2022-08-19T06:55:58;100217.41;;;17.72;99.12
13952;BME280;39535;52.192;9.886;2022-08-19T06:58:27;100215.69;;;17.71;99.04
13952;BME280;39535;52.192;9.886;2022-08-19T07:00:57;100227.34;;;17.67;98.98
13952;BME280;39535;52.192;9.886;2022-08-19T07:03:29;100228.88;;;17.89;98.92
13952;BME280;39535;52.192;9.886;2022-08-19T07:05:57;100222.75;;;17.88;98.90
13952;BME280;39535;52.192;9.886;2022-08-19T07:08:24;100225.47;;;17.86;99.02
13952;BME280;39535;52.192;9.886;2022-08-19T07:10:52;100231.13;;;17.96;98.42
13952;BME280;39535;52.192;9.886;2022-08-19T07:13:18;100251.84;;;18.04;97.86
13952;BME280;39535;52.192;9.886;2022-08-19T07:15:46;100274.75;;;18.03;96.97
13952;BME280;39535;52.192;9.886;2022-08-19T07:18:15;100272.91;;;18.21;97.31
13952;BME280;39535;52.192;9.886;2022-08-19T07:20:43;100288.38;;;18.29;96.26
13952;BME280;39535;52.192;9.886;2022-08-19T07:23:10;100292.25;;;18.06;96.22
13952;BME280;39535;52.192;9.886;2022-08-19T07:25:36;100291.47;;;18.04;96.54
13952;BME280;39535;52.192;9.886;2022-08-19T07:28:03;100285.06;;;18.25;96.67
13952;BME280;39535;52.192;9.886;2022-08-19T07:30:36;100305.34;;;18.41;95.94
13952;BME280;39535;52.192;9.886;2022-08-19T07:33:02;100337.69;;;18.46;93.53
13952;BME280;39535;52.192;9.886;2022-08-19T07:35:29;100368.59;;;18.61;93.06
13952;BME280;39535;52.192;9.886;2022-08-19T07:37:58;100385.09;;;18.49;92.68
13952;BME280;39535;52.192;9.886;2022-08-19T07:40:27;100404.50;;;18.32;92.16
13952;BME280;39535;52.192;9.886;2022-08-19T07:42:54;100404.88;;;18.24;92.23
13952;BME280;39535;52.192;9.886;2022-08-19T07:45:20;100394.84;;;18.31;93.40
13952;BME280;39535;52.192;9.886;2022-08-19T07:47:47;100366.00;;;18.44;93.91
13952;BME280;39535;52.192;9.886;2022-08-19T07:50:13;100399.69;;;18.56;91.49
13952;BME280;39535;52.192;9.886;2022-08-19T07:52:40;100430.28;;;18.78;90.68
13952;BME280;39535;52.192;9.886;2022-08-19T07:55:10;100440.50;;;18.68;89.92
13952;BME280;39535;52.192;9.886;2022-08-19T07:57:37;100429.53;;;18.76;90.36
13952;BME280;39535;52.192;9.886;2022-08-19T08:00:05;100445.63;;;18.89;89.17
13952;BME280;39535;52.192;9.886;2022-08-19T08:02:31;100472.63;;;18.95;88.75
13952;BME280;39535;52.192;9.886;2022-08-19T08:04:58;100470.53;;;18.84;88.65
13952;BME280;39535;52.192;9.886;2022-08-19T08:07:42;100480.69;;;18.92;88.49
13952;BME280;39535;52.192;9.886;2022-08-19T08:10:27;100512.75;;;18.69;87.85
13952;BME280;39535;52.192;9.886;2022-08-19T08:12:54;100500.75;;;18.79;88.50
13952;BME280;39535;52.192;9.886;2022-08-19T08:15:20;100481.47;;;18.94;88.50
13952;BME280;39535;52.192;9.886;2022-08-19T08:17:47;100509.28;;;18.85;86.82
13952;BME280;39535;52.192;9.886;2022-08-19T08:20:14;100504.31;;;19.13;86.98
13952;BME280;39535;52.192;9.886;2022-08-19T08:22:43;100508.28;;;19.37;86.69
13952;BME280;39535;52.192;9.886;2022-08-19T08:25:29;100534.91;;;19.50;85.56
13952;BME280;39535;52.192;9.886;2022-08-19T08:27:56;100591.56;;;19.48;83.33
13952;BME280;39535;52.192;9.886;2022-08-19T08:30:26;100626.66;;;19.51;82.39
13952;BME280;39535;52.192;9.886;2022-08-19T08:32:53;100619.91;;;19.79;82.44
13952;BME280;39535;52.192;9.886;2022-08-19T08:35:22;100646.00;;;19.87;81.86
13952;BME280;39535;52.192;9.886;2022-08-19T08:37:52;100637.97;;;20.04;81.68
13952;BME280;39535;52.192;9.886;2022-08-19T08:40:23;100749.38;;;20.02;77.21
13952;BME280;39535;52.192;9.886;2022-08-19T08:42:57;100745.41;;;20.10;78.62
13952;BME280;39535;52.192;9.886;2022-08-19T08:45:27;100769.50;;;20.22;78.08
13952;BME280;39535;52.192;9.886;2022-08-19T08:47:57;100777.88;;;20.31;77.50
13952;BME280;39535;52.192;9.886;2022-08-19T08:50:30;100764.22;;;20.38;77.67
13952;BME280;39535;52.192;9.886;2022-08-19T08:53:02;100799.44;;;20.40;76.19
13952;BME280;39535;52.192;9.886;2022-08-19T08:55:31;100799.31;;;20.43;76.53
13952;BME280;39535;52.192;9.886;2022-08-19T08:58:03;100806.56;;;20.40;76.06
13952;BME280;39535;52.192;9.886;2022-08-19T09:00:32;100809.28;;;20.05;75.30
13952;BME280;39535;52.192;9.886;2022-08-19T09:03:01;100823.25;;;19.91;75.07
13952;BME280;39535;52.192;9.886;2022-08-19T09:05:35;100819.81;;;19.89;74.52
13952;BME280;39535;52.192;9.886;2022-08-19T09:08:07;100793.72;;;19.81;74.91
13952;BME280;39535;52.192;9.886;2022-08-19T09:10:38;100727.50;;;19.64;77.93
13952;BME280;39535;52.192;9.886;2022-08-19T09:13:18;100709.81;;;19.82;77.46
13952;BME280;39535;52.192;9.886;2022-08-19T09:15:52;100725.63;;;19.83;76.14
13952;BME280;39535;52.192;9.886;2022-08-19T09:18:20;100726.06;;;19.92;76.52
13952;BME280;39535;52.192;9.886;2022-08-19T09:20:46;100746.38;;;19.75;75.88
13952;BME280;39535;52.192;9.886;2022-08-19T09:23:13;100760.91;;;19.84;75.60
13952;BME280;39535;52.192;9.886;2022-08-19T09:25:40;100739.31;;;19.92;75.25
13952;BME280;39535;52.192;9.886;2022-08-19T09:28:07;100768.72;;;19.87;74.81
13952;BME280;39535;52.192;9.886;2022-08-19T09:30:41;100784.97;;;19.97;74.34
13952;BME280;39535;52.192;9.886;2022-08-19T09:33:08;100806.19;;;19.97;73.73
13952;BME280;39535;52.192;9.886;2022-08-19T09:35:34;100808.91;;;19.95;74.11
13952;BME280;39535;52.192;9.886;2022-08-19T09:38:01;100797.97;;;20.01;73.96
13952;BME280;39535;52.192;9.886;2022-08-19T09:40:30;100803.06;;;20.06;73.78
13952;BME280;39535;52.192;9.886;2022-08-19T09:42:56;100818.06;;;20.23;73.78
13952;BME280;39535;52.192;9.886;2022-08-19T09:45:28;100824.91;;;20.27;72.62
13952;BME280;39535;52.192;9.886;2022-08-19T09:47:56;100826.75;;;20.42;72.43
13952;BME280;39535;52.192;9.886;2022-08-19T09:50:23;100850.09;;;20.36;71.32
13952;BME280;39535;52.192;9.886;2022-08-19T09:52:50;100864.91;;;20.40;70.95
13952;BME280;39535;52.192;9.886;2022-08-19T09:55:18;100857.34;;;20.32;71.43
13952;BME280;39535;52.192;9.886;2022-08-19T09:57:45;100833.19;;;20.21;72.44
13952;BME280;39535;52.192;9.886;2022-08-19T10:00:11;100830.47;;;20.22;72.06
13952;BME280;39535;52.192;9.886;2022-08-19T10:02:39;100800.31;;;20.41;72.64
13952;BME280;39535;52.192;9.886;2022-08-19T10:05:06;100786.66;;;20.65;72.40
13952;BME280;39535;52.192;9.886;2022-08-19T10:07:50;100799.34;;;20.75;72.08
13952;BME280;39535;52.192;9.886;2022-08-19T10:10:17;100863.84;;;20.60;70.49
13952;BME280;39535;52.192;9.886;2022-08-19T10:12:43;100887.47;;;20.47;69.30
13952;BME280;39535;52.192;9.886;2022-08-19T10:15:13;100867.44;;;20.41;70.08
13952;BME280;39535;52.192;9.886;2022-08-19T10:17:41;100838.94;;;20.62;70.17
13952;BME280;39535;52.192;9.886;2022-08-19T10:20:08;100857.28;;;20.83;70.02
13952;BME280;39535;52.192;9.886;2022-08-19T10:22:35;100919.88;;;20.87;67.20
13952;BME280;39535;52.192;9.886;2022-08-19T10:25:04;100953.13;;;21.10;67.21
13952;BME280;39535;52.192;9.886;2022-08-19T10:27:31;100999.88;;;21.13;65.79
13952;BME280;39535;52.192;9.886;2022-08-19T10:29:57;101048.56;;;21.29;63.55
13952;BME280;39535;52.192;9.886;2022-08-19T10:32:24;101107.13;;;21.44;62.19
13952;BME280;39535;52.192;9.886;2022-08-19T10:34:52;101106.31;;;21.41;62.68
13952;BME280;39535;52.192;9.886;2022-08-19T10:37:19;101086.78;;;21.42;63.11
13952;BME280;39535;52.192;9.886;2022-08-19T10:39:46;101059.25;;;21.45;63.67
13952;BME280;39535;52.192;9.886;2022-08-19T10:42:13;101055.88;;;21.41;62.42
13952;BME280;39535;52.192;9.886;2022-08-19T10:44:41;101050.69;;;21.56;61.45
13952;BME280;39535;52.192;9.886;2022-08-19T10:47:08;101060.53;;;21.70;61.20
13952;BME280;39535;52.192;9.886;2022-08-19T10:49:34;101149.00;;;21.72;58.83
13952;BME280;39535;52.192;9.886;2022-08-19T10:52:23;101163.06;;;21.74;59.13
13952;BME280;39535;52.192;9.886;2022-08-19T10:55:04;101157.78;;;21.56;59.36
13952;BME280;39535;52.192;9.886;2022-08-19T10:57:49;101140.97;;;21.73;59.33
13952;BME280;39535;52.192;9.886;2022-08-19T11:00:18;101145.25;;;21.92;58.81
13952;BME280;39535;52.192;9.886;2022-08-19T11:02:44;101162.41;;;22.02;57.45
13952;BME280;39535;52.192;9.886;2022-08-19T11:05:11;101155.03;;;22.23;58.30
13952;BME280;39535;52.192;9.886;2022-08-19T11:07:39;101163.66;;;22.28;57.28
13952;BME280;39535;52.192;9.886;2022-08-19T11:10:08;101173.69;;;22.39;58.02
13952;BME280;39535;52.192;9.886;2022-08-19T11:12:36;101147.50;;;22.47;57.59
13952;BME280;39535;52.192;9.886;2022-08-19T11:15:05;101140.72;;;22.41;57.69
13952;BME280;39535;52.192;9.886;2022-08-19T11:17:31;101117.81;;;22.69;58.12
13952;BME280;39535;52.192;9.886;2022-08-19T11:19:58;101108.47;;;22.78;57.43
13952;BME280;39535;52.192;9.886;2022-08-19T11:22:27;101122.28;;;22.69;57.16
13952;BME280;39535;52.192;9.886;2022-08-19T11:24:55;101134.78;;;22.83;56.50
13952;BME280;39535;52.192;9.886;2022-08-19T11:27:22;101155.44;;;23.09;55.91
13952;BME280;39535;52.192;9.886;2022-08-19T11:29:48;101228.66;;;23.02;54.16
13952;BME280;39535;52.192;9.886;2022-08-19T11:32:15;101247.22;;;23.04;54.70
13952;BME280;39535;52.192;9.886;2022-08-19T11:34:42;101202.50;;;23.39;54.87
13952;BME280;39535;52.192;9.886;2022-08-19T11:37:09;101201.13;;;23.91;54.36
13952;BME280;39535;52.192;9.886;2022-08-19T11:39:36;101265.47;;;24.42;51.88
13952;BME280;39535;52.192;9.886;2022-08-19T11:42:05;101328.59;;;24.85;51.04
13952;BME280;39535;52.192;9.886;2022-08-19T11:44:53;101391.88;;;25.66;49.39
13952;BME280;39535;52.192;9.886;2022-08-19T11:47:19;101444.66;;;26.68;46.37
13952;BME280;39535;52.192;9.886;2022-08-19T11:49:47;101558.66;;;27.23;43.21
13952;BME280;39535;52.192;9.886;2022-08-19T11:52:13;101622.09;;;27.74;41.22
13952;BME280;39535;52.192;9.886;2022-08-19T11:54:40;101651.53;;;28.72;40.99
13952;BME280;39535;52.192;9.886;2022-08-19T11:57:08;101670.72;;;28.67;39.40
13952;BME280;39535;52.192;9.886;2022-08-19T11:59:34;101661.56;;;27.98;39.24
13952;BME280;39535;52.192;9.886;2022-08-19T12:02:01;101620.44;;;28.21;39.94
13952;BME280;39535;52.192;9.886;2022-08-19T12:04:27;101575.66;;;28.22;40.80
13952;BME280;39535;52.192;9.886;2022-08-19T12:06:53;101540.47;;;28.49;40.25
13952;BME280;39535;52.192;9.886;2022-08-19T12:09:20;101521.41;;;29.76;38.93
13952;BME280;39535;52.192;9.886;2022-08-19T12:11:47;101580.94;;;30.26;38.27
13952;BME280;39535;52.192;9.886;2022-08-19T12:14:15;101624.81;;;31.43;36.41
13952;BME280;39535;52.192;9.886;2022-08-19T12:16:43;101677.81;;;32.25;34.16
13952;BME280;39535;52.192;9.886;2022-08-19T12:19:10;101692.50;;;30.67;35.94
13952;BME280;39535;52.192;9.886;2022-08-19T12:21:37;101636.41;;;29.40;36.83
13952;BME280;39535;52.192;9.886;2022-08-19T12:24:05;101522.34;;;28.86;38.96
13952;BME280;39535;52.192;9.886;2022-08-19T12:26:32;101505.28;;;28.41;38.13
13952;BME280;39535;52.192;9.886;2022-08-19T12:28:59;101482.66;;;28.21;39.35
13952;BME280;39535;52.192;9.886;2022-08-19T12:31:28;101432.84;;;28.28;40.28
13952;BME280;39535;52.192;9.886;2022-08-19T12:33:55;101440.22;;;28.48;38.77
13952;BME280;39535;52.192;9.886;2022-08-19T12:36:22;101423.47;;;27.87;39.42
13952;BME280;39535;52.192;9.886;2022-08-19T12:38:50;101376.88;;;27.52;42.31
13952;BME280;39535;52.192;9.886;2022-08-19T12:41:17;101372.22;;;27.43;40.16
13952;BME280;39535;52.192;9.886;2022-08-19T12:43:47;101408.44;;;27.73;40.73
13952;BME280;39535;52.192;9.886;2022-08-19T12:46:14;101416.94;;;28.02;39.83
13952;BME280;39535;52.192;9.886;2022-08-19T12:48:42;101422.38;;;27.54;39.89
13952;BME280;39535;52.192;9.886;2022-08-19T12:51:13;101392.75;;;26.94;40.42